NCAR-RAP Real-Time Weather Data

Output produced by METARs form (25 August 2019  22:31 UTC)
found at http://weather.rap.ucar.edu/surface/
 
 
RJCC 252200Z VRB02KT 9999 FEW015 SCT040 16/13 Q1014 RMK 1ST015 3CU040 A2995
 
RJCH 252200Z VRB02KT 9999 FEW030 17/14 Q1014
 
RJCK 252200Z VRB02KT 9999 FEW002 SCT006 14/14 Q1013
 
 
 
RJEC 252200Z 18004KT 9999 -SHRA FEW002 SCT020 BKN040 15/14 Q1013
 
RJSA 252200Z 21007KT 9999 VCSH FEW001 SCT010 BKN030 17/15 Q1014
 
 
RJSF 252200Z 36005KT 9999 FEW001 SCT040 BKN080 20/19 Q1015
 
 
RJSK 252200Z 11003KT 070V140 9999 FEW025 SCT050 19/17 Q1014
 
RJSM 252200Z VRB02KT 9999 FEW025 BKN040 19/15 Q1013
 
RJSN 252200Z 17004KT 9999 FEW015 SCT040 23/21 Q1014
 
 
RJSS 252200Z VRB01KT 9999 FEW020 SCT040 22/18 Q1013
 
RJSY 252200Z VRB01KT 9999 -SHRA FEW005 SCT030 BKN040 21/19 Q1014